sensor_id;sensor_type;location;lat;lon;timestamp;P1;durP1;ratioP1;P2;durP2;ratioP2
40753;SDS011;26460;42.732;-84.532;2024-02-26T00:01:45;7.22;;;1.40;;
40753;SDS011;26460;42.732;-84.532;2024-02-26T00:04:12;5.28;;;1.30;;
40753;SDS011;26460;42.732;-84.532;2024-02-26T00:06:39;5.80;;;1.48;;
40753;SDS011;26460;42.732;-84.532;2024-02-26T00:09:08;3.97;;;1.70;;
40753;SDS011;26460;42.732;-84.532;2024-02-26T00:11:35;3.00;;;1.50;;
40753;SDS011;26460;42.732;-84.532;2024-02-26T00:14:03;3.20;;;1.70;;
40753;SDS011;26460;42.732;-84.532;2024-02-26T00:16:29;2.83;;;1.75;;
40753;SDS011;26460;42.732;-84.532;2024-02-26T00:18:56;3.85;;;1.58;;
40753;SDS011;26460;42.732;-84.532;2024-02-26T00:21:23;5.07;;;1.67;;
40753;SDS011;26460;42.732;-84.532;2024-02-26T00:23:49;3.58;;;1.75;;
40753;SDS011;26460;42.732;-84.532;2024-02-26T00:26:16;4.95;;;1.52;;
40753;SDS011;26460;42.732;-84.532;2024-02-26T00:28:43;2.03;;;1.70;;
40753;SDS011;26460;42.732;-84.532;2024-02-26T00:31:10;4.80;;;1.70;;
40753;SDS011;26460;42.732;-84.532;2024-02-26T00:33:37;4.82;;;1.50;;
40753;SDS011;26460;42.732;-84.532;2024-02-26T00:36:04;2.05;;;1.60;;
40753;SDS011;26460;42.732;-84.532;2024-02-26T00:38:31;1.90;;;1.70;;
40753;SDS011;26460;42.732;-84.532;2024-02-26T00:40:58;3.28;;;1.80;;
40753;SDS011;26460;42.732;-84.532;2024-02-26T00:43:24;3.35;;;1.90;;
40753;SDS011;26460;42.732;-84.532;2024-02-26T00:45:51;8.90;;;2.60;;
40753;SDS011;26460;42.732;-84.532;2024-02-26T00:48:18;4.93;;;2.63;;
40753;SDS011;26460;42.732;-84.532;2024-02-26T00:50:44;3.78;;;2.00;;
40753;SDS011;26460;42.732;-84.532;2024-02-26T00:53:11;4.28;;;1.90;;
40753;SDS011;26460;42.732;-84.532;2024-02-26T00:55:37;6.53;;;1.83;;
40753;SDS011;26460;42.732;-84.532;2024-02-26T00:58:04;2.92;;;1.83;;
40753;SDS011;26460;42.732;-84.532;2024-02-26T01:00:30;6.13;;;2.25;;
40753;SDS011;26460;42.732;-84.532;2024-02-26T01:02:57;5.90;;;2.30;;
40753;SDS011;26460;42.732;-84.532;2024-02-26T01:05:25;3.75;;;2.08;;
40753;SDS011;26460;42.732;-84.532;2024-02-26T01:07:52;5.20;;;2.20;;
40753;SDS011;26460;42.732;-84.532;2024-02-26T01:10:18;3.38;;;1.75;;
40753;SDS011;26460;42.732;-84.532;2024-02-26T01:12:45;3.28;;;2.38;;
40753;SDS011;26460;42.732;-84.532;2024-02-26T01:15:11;6.53;;;2.38;;
40753;SDS011;26460;42.732;-84.532;2024-02-26T01:17:38;3.05;;;1.90;;
40753;SDS011;26460;42.732;-84.532;2024-02-26T01:20:05;3.20;;;2.08;;
40753;SDS011;26460;42.732;-84.532;2024-02-26T01:22:32;2.58;;;1.90;;
40753;SDS011;26460;42.732;-84.532;2024-02-26T01:24:58;2.65;;;2.03;;
40753;SDS011;26460;42.732;-84.532;2024-02-26T01:27:25;4.40;;;2.28;;
40753;SDS011;26460;42.732;-84.532;2024-02-26T01:29:53;4.93;;;2.25;;
40753;SDS011;26460;42.732;-84.532;2024-02-26T01:32:19;4.80;;;2.30;;
40753;SDS011;26460;42.732;-84.532;2024-02-26T01:34:46;4.40;;;2.22;;
40753;SDS011;26460;42.732;-84.532;2024-02-26T01:37:12;5.10;;;2.35;;
40753;SDS011;26460;42.732;-84.532;2024-02-26T01:39:39;5.72;;;2.30;;
40753;SDS011;26460;42.732;-84.532;2024-02-26T01:42:07;4.45;;;2.67;;
40753;SDS011;26460;42.732;-84.532;2024-02-26T01:44:33;5.05;;;2.63;;
40753;SDS011;26460;42.732;-84.532;2024-02-26T01:47:00;4.82;;;2.33;;
40753;SDS011;26460;42.732;-84.532;2024-02-26T01:49:28;4.50;;;2.85;;
40753;SDS011;26460;42.732;-84.532;2024-02-26T01:51:55;4.60;;;2.40;;
40753;SDS011;26460;42.732;-84.532;2024-02-26T01:54:23;4.10;;;2.60;;
40753;SDS011;26460;42.732;-84.532;2024-02-26T01:56:50;4.55;;;2.67;;
40753;SDS011;26460;42.732;-84.532;2024-02-26T01:59:17;4.28;;;2.72;;
40753;SDS011;26460;42.732;-84.532;2024-02-26T02:01:44;4.85;;;2.72;;
40753;SDS011;26460;42.732;-84.532;2024-02-26T02:04:15;8.82;;;3.50;;
40753;SDS011;26460;42.732;-84.532;2024-02-26T02:06:42;5.85;;;3.25;;
40753;SDS011;26460;42.732;-84.532;2024-02-26T02:09:11;5.20;;;2.78;;
40753;SDS011;26460;42.732;-84.532;2024-02-26T02:11:37;4.10;;;2.80;;
40753;SDS011;26460;42.732;-84.532;2024-02-26T02:14:04;7.15;;;3.03;;
40753;SDS011;26460;42.732;-84.532;2024-02-26T02:16:31;8.18;;;3.17;;
40753;SDS011;26460;42.732;-84.532;2024-02-26T02:18:58;8.18;;;3.10;;
40753;SDS011;26460;42.732;-84.532;2024-02-26T02:21:24;4.28;;;2.75;;
40753;SDS011;26460;42.732;-84.532;2024-02-26T02:23:51;5.00;;;2.78;;
40753;SDS011;26460;42.732;-84.532;2024-02-26T02:26:18;4.25;;;2.60;;
40753;SDS011;26460;42.732;-84.532;2024-02-26T02:28:45;5.00;;;2.75;;
40753;SDS011;26460;42.732;-84.532;2024-02-26T02:31:13;4.47;;;2.80;;
40753;SDS011;26460;42.732;-84.532;2024-02-26T02:33:40;5.90;;;2.85;;
40753;SDS011;26460;42.732;-84.532;2024-02-26T02:36:06;3.20;;;2.67;;
40753;SDS011;26460;42.732;-84.532;2024-02-26T02:38:36;6.90;;;3.10;;
40753;SDS011;26460;42.732;-84.532;2024-02-26T02:41:03;3.65;;;2.70;;
40753;SDS011;26460;42.732;-84.532;2024-02-26T02:43:30;6.55;;;3.08;;
40753;SDS011;26460;42.732;-84.532;2024-02-26T02:45:57;4.75;;;2.72;;
40753;SDS011;26460;42.732;-84.532;2024-02-26T02:48:23;5.60;;;2.38;;
40753;SDS011;26460;42.732;-84.532;2024-02-26T02:50:50;4.90;;;2.67;;
40753;SDS011;26460;42.732;-84.532;2024-02-26T02:53:17;4.35;;;2.60;;
40753;SDS011;26460;42.732;-84.532;2024-02-26T02:55:44;3.45;;;2.63;;
40753;SDS011;26460;42.732;-84.532;2024-02-26T02:58:10;2.70;;;2.42;;
40753;SDS011;26460;42.732;-84.532;2024-02-26T03:00:37;2.45;;;2.03;;
40753;SDS011;26460;42.732;-84.532;2024-02-26T03:03:03;3.13;;;2.28;;
40753;SDS011;26460;42.732;-84.532;2024-02-26T03:05:30;3.05;;;2.08;;
40753;SDS011;26460;42.732;-84.532;2024-02-26T03:07:57;3.40;;;2.13;;
40753;SDS011;26460;42.732;-84.532;2024-02-26T03:10:24;2.67;;;2.13;;
40753;SDS011;26460;42.732;-84.532;2024-02-26T03:12:50;2.58;;;2.08;;
40753;SDS011;26460;42.732;-84.532;2024-02-26T03:15:17;3.35;;;2.50;;
40753;SDS011;26460;42.732;-84.532;2024-02-26T03:17:43;5.25;;;2.50;;
40753;SDS011;26460;42.732;-84.532;2024-02-26T03:20:10;3.38;;;2.25;;
40753;SDS011;26460;42.732;-84.532;2024-02-26T03:22:38;2.97;;;2.35;;
40753;SDS011;26460;42.732;-84.532;2024-02-26T03:25:06;3.28;;;2.40;;
40753;SDS011;26460;42.732;-84.532;2024-02-26T03:27:33;3.72;;;2.55;;
40753;SDS011;26460;42.732;-84.532;2024-02-26T03:29:59;2.67;;;2.33;;
40753;SDS011;26460;42.732;-84.532;2024-02-26T03:32:26;2.78;;;2.15;;
40753;SDS011;26460;42.732;-84.532;2024-02-26T03:34:52;2.83;;;2.40;;
40753;SDS011;26460;42.732;-84.532;2024-02-26T03:37:21;3.15;;;2.40;;
40753;SDS011;26460;42.732;-84.532;2024-02-26T03:39:48;3.75;;;2.42;;
40753;SDS011;26460;42.732;-84.532;2024-02-26T03:42:14;3.92;;;2.53;;
40753;SDS011;26460;42.732;-84.532;2024-02-26T03:44:42;2.70;;;2.22;;
40753;SDS011;26460;42.732;-84.532;2024-02-26T03:47:08;4.20;;;2.40;;
40753;SDS011;26460;42.732;-84.532;2024-02-26T03:49:35;4.65;;;2.28;;
40753;SDS011;26460;42.732;-84.532;2024-02-26T03:52:02;3.85;;;2.28;;
40753;SDS011;26460;42.732;-84.532;2024-02-26T03:54:28;2.80;;;2.30;;
40753;SDS011;26460;42.732;-84.532;2024-02-26T03:56:55;2.67;;;2.15;;
40753;SDS011;26460;42.732;-84.532;2024-02-26T03:59:21;3.55;;;2.20;;
40753;SDS011;26460;42.732;-84.532;2024-02-26T04:01:50;3.28;;;2.30;;
40753;SDS011;26460;42.732;-84.532;2024-02-26T04:04:17;2.83;;;2.15;;
40753;SDS011;26460;42.732;-84.532;2024-02-26T04:06:44;4.22;;;2.13;;
40753;SDS011;26460;42.732;-84.532;2024-02-26T04:09:13;3.03;;;2.20;;
40753;SDS011;26460;42.732;-84.532;2024-02-26T04:11:40;3.10;;;2.40;;
40753;SDS011;26460;42.732;-84.532;2024-02-26T04:14:08;2.60;;;2.20;;
40753;SDS011;26460;42.732;-84.532;2024-02-26T04:16:37;3.78;;;2.35;;
40753;SDS011;26460;42.732;-84.532;2024-02-26T04:19:04;2.83;;;2.13;;
40753;SDS011;26460;42.732;-84.532;2024-02-26T04:21:32;3.83;;;2.30;;
40753;SDS011;26460;42.732;-84.532;2024-02-26T04:23:59;4.10;;;2.58;;
40753;SDS011;26460;42.732;-84.532;2024-02-26T04:26:28;5.38;;;2.58;;
40753;SDS011;26460;42.732;-84.532;2024-02-26T04:28:56;3.25;;;2.50;;
40753;SDS011;26460;42.732;-84.532;2024-02-26T04:31:22;3.60;;;2.78;;
40753;SDS011;26460;42.732;-84.532;2024-02-26T04:33:49;5.05;;;2.92;;
40753;SDS011;26460;42.732;-84.532;2024-02-26T04:36:15;4.53;;;3.55;;
40753;SDS011;26460;42.732;-84.532;2024-02-26T04:38:42;4.78;;;3.45;;
40753;SDS011;26460;42.732;-84.532;2024-02-26T04:41:09;7.95;;;4.03;;
40753;SDS011;26460;42.732;-84.532;2024-02-26T04:43:37;13.20;;;7.75;;
40753;SDS011;26460;42.732;-84.532;2024-02-26T04:46:10;20.83;;;10.98;;
40753;SDS011;26460;42.732;-84.532;2024-02-26T04:48:36;28.25;;;13.80;;
40753;SDS011;26460;42.732;-84.532;2024-02-26T04:51:04;28.10;;;16.65;;
40753;SDS011;26460;42.732;-84.532;2024-02-26T04:53:30;29.25;;;18.20;;
40753;SDS011;26460;42.732;-84.532;2024-02-26T04:55:57;41.42;;;23.40;;
40753;SDS011;26460;42.732;-84.532;2024-02-26T04:58:23;41.50;;;23.50;;
40753;SDS011;26460;42.732;-84.532;2024-02-26T05:00:50;42.78;;;24.90;;
40753;SDS011;26460;42.732;-84.532;2024-02-26T05:03:17;45.85;;;27.77;;
40753;SDS011;26460;42.732;-84.532;2024-02-26T05:05:43;50.90;;;28.77;;
40753;SDS011;26460;42.732;-84.532;2024-02-26T05:08:10;49.40;;;28.25;;
40753;SDS011;26460;42.732;-84.532;2024-02-26T05:10:37;52.25;;;29.00;;
40753;SDS011;26460;42.732;-84.532;2024-02-26T05:13:07;43.65;;;26.17;;
40753;SDS011;26460;42.732;-84.532;2024-02-26T05:15:33;43.55;;;25.73;;
40753;SDS011;26460;42.732;-84.532;2024-02-26T05:18:00;34.65;;;22.55;;
40753;SDS011;26460;42.732;-84.532;2024-02-26T05:20:28;35.03;;;23.48;;
40753;SDS011;26460;42.732;-84.532;2024-02-26T05:22:54;33.05;;;21.25;;
40753;SDS011;26460;42.732;-84.532;2024-02-26T05:25:21;33.25;;;22.70;;
40753;SDS011;26460;42.732;-84.532;2024-02-26T05:27:48;35.80;;;20.02;;
40753;SDS011;26460;42.732;-84.532;2024-02-26T05:30:14;27.83;;;18.55;;
40753;SDS011;26460;42.732;-84.532;2024-02-26T05:32:41;26.13;;;16.75;;
40753;SDS011;26460;42.732;-84.532;2024-02-26T05:35:07;23.25;;;16.23;;
40753;SDS011;26460;42.732;-84.532;2024-02-26T05:37:34;23.98;;;15.77;;
40753;SDS011;26460;42.732;-84.532;2024-02-26T05:40:01;23.83;;;15.15;;
40753;SDS011;26460;42.732;-84.532;2024-02-26T05:42:30;22.80;;;14.98;;
40753;SDS011;26460;42.732;-84.532;2024-02-26T05:44:56;23.13;;;14.70;;
40753;SDS011;26460;42.732;-84.532;2024-02-26T05:47:23;20.90;;;14.55;;
40753;SDS011;26460;42.732;-84.532;2024-02-26T05:49:50;21.85;;;14.02;;
40753;SDS011;26460;42.732;-84.532;2024-02-26T05:52:17;24.83;;;15.05;;
40753;SDS011;26460;42.732;-84.532;2024-02-26T05:54:43;19.88;;;13.57;;
40753;SDS011;26460;42.732;-84.532;2024-02-26T05:57:10;19.52;;;14.27;;
40753;SDS011;26460;42.732;-84.532;2024-02-26T05:59:37;20.08;;;12.63;;
40753;SDS011;26460;42.732;-84.532;2024-02-26T06:02:03;19.25;;;13.48;;
40753;SDS011;26460;42.732;-84.532;2024-02-26T06:04:30;21.42;;;13.95;;
40753;SDS011;26460;42.732;-84.532;2024-02-26T06:06:57;24.27;;;16.30;;
40753;SDS011;26460;42.732;-84.532;2024-02-26T06:09:23;26.88;;;18.08;;
40753;SDS011;26460;42.732;-84.532;2024-02-26T06:11:50;25.45;;;18.08;;
40753;SDS011;26460;42.732;-84.532;2024-02-26T06:14:17;28.63;;;16.80;;
40753;SDS011;26460;42.732;-84.532;2024-02-26T06:16:44;25.25;;;16.45;;
40753;SDS011;26460;42.732;-84.532;2024-02-26T06:19:10;27.83;;;16.77;;
40753;SDS011;26460;42.732;-84.532;2024-02-26T06:21:37;34.40;;;19.80;;
40753;SDS011;26460;42.732;-84.532;2024-02-26T06:24:04;33.90;;;20.48;;
40753;SDS011;26460;42.732;-84.532;2024-02-26T06:26:31;42.83;;;23.30;;
40753;SDS011;26460;42.732;-84.532;2024-02-26T06:28:59;44.33;;;23.07;;
40753;SDS011;26460;42.732;-84.532;2024-02-26T06:31:25;43.13;;;24.10;;
40753;SDS011;26460;42.732;-84.532;2024-02-26T06:33:53;40.83;;;26.08;;
40753;SDS011;26460;42.732;-84.532;2024-02-26T06:36:21;47.55;;;28.55;;
40753;SDS011;26460;42.732;-84.532;2024-02-26T06:38:49;52.35;;;31.02;;
40753;SDS011;26460;42.732;-84.532;2024-02-26T06:41:15;55.15;;;32.55;;
40753;SDS011;26460;42.732;-84.532;2024-02-26T06:43:42;49.17;;;32.25;;
40753;SDS011;26460;42.732;-84.532;2024-02-26T06:46:08;52.08;;;32.20;;
40753;SDS011;26460;42.732;-84.532;2024-02-26T06:48:35;50.58;;;30.88;;
40753;SDS011;26460;42.732;-84.532;2024-02-26T06:51:02;49.67;;;31.05;;
40753;SDS011;26460;42.732;-84.532;2024-02-26T06:53:29;52.38;;;32.83;;
40753;SDS011;26460;42.732;-84.532;2024-02-26T06:55:56;54.97;;;33.33;;
40753;SDS011;26460;42.732;-84.532;2024-02-26T06:58:23;52.05;;;34.08;;
40753;SDS011;26460;42.732;-84.532;2024-02-26T07:00:49;52.40;;;31.08;;
40753;SDS011;26460;42.732;-84.532;2024-02-26T07:03:16;45.00;;;29.40;;
40753;SDS011;26460;42.732;-84.532;2024-02-26T07:05:42;44.85;;;29.55;;
40753;SDS011;26460;42.732;-84.532;2024-02-26T07:08:10;39.95;;;25.88;;
40753;SDS011;26460;42.732;-84.532;2024-02-26T07:10:37;37.35;;;24.27;;
40753;SDS011;26460;42.732;-84.532;2024-02-26T07:13:04;33.47;;;22.20;;
40753;SDS011;26460;42.732;-84.532;2024-02-26T07:15:30;31.92;;;21.58;;
40753;SDS011;26460;42.732;-84.532;2024-02-26T07:17:57;31.30;;;20.73;;
40753;SDS011;26460;42.732;-84.532;2024-02-26T07:20:31;27.73;;;19.20;;
40753;SDS011;26460;42.732;-84.532;2024-02-26T07:22:58;27.80;;;17.92;;
40753;SDS011;26460;42.732;-84.532;2024-02-26T07:25:25;26.98;;;17.35;;
40753;SDS011;26460;42.732;-84.532;2024-02-26T07:27:51;26.90;;;17.42;;
40753;SDS011;26460;42.732;-84.532;2024-02-26T07:30:18;27.38;;;16.65;;
40753;SDS011;26460;42.732;-84.532;2024-02-26T07:32:44;20.80;;;14.63;;
40753;SDS011;26460;42.732;-84.532;2024-02-26T07:35:11;24.83;;;14.85;;
40753;SDS011;26460;42.732;-84.532;2024-02-26T07:37:38;22.90;;;14.13;;
40753;SDS011;26460;42.732;-84.532;2024-02-26T07:40:04;19.23;;;12.07;;
40753;SDS011;26460;42.732;-84.532;2024-02-26T07:45:00;14.43;;;10.15;;
40753;SDS011;26460;42.732;-84.532;2024-02-26T07:47:26;15.15;;;10.57;;
40753;SDS011;26460;42.732;-84.532;2024-02-26T07:49:53;14.20;;;9.32;;
40753;SDS011;26460;42.732;-84.532;2024-02-26T07:52:19;12.07;;;9.15;;
40753;SDS011;26460;42.732;-84.532;2024-02-26T07:54:46;14.30;;;9.77;;
40753;SDS011;26460;42.732;-84.532;2024-02-26T07:57:12;14.93;;;9.50;;
40753;SDS011;26460;42.732;-84.532;2024-02-26T07:59:42;17.55;;;9.88;;
40753;SDS011;26460;42.732;-84.532;2024-02-26T08:02:10;14.75;;;9.85;;
40753;SDS011;26460;42.732;-84.532;2024-02-26T08:04:37;14.05;;;8.77;;
40753;SDS011;26460;42.732;-84.532;2024-02-26T08:07:03;13.35;;;9.20;;
40753;SDS011;26460;42.732;-84.532;2024-02-26T08:09:30;13.45;;;8.63;;
40753;SDS011;26460;42.732;-84.532;2024-02-26T08:11:56;13.13;;;8.40;;
40753;SDS011;26460;42.732;-84.532;2024-02-26T08:14:23;12.77;;;8.38;;
40753;SDS011;26460;42.732;-84.532;2024-02-26T08:16:49;13.48;;;7.32;;
40753;SDS011;26460;42.732;-84.532;2024-02-26T08:19:16;10.68;;;7.00;;
40753;SDS011;26460;42.732;-84.532;2024-02-26T08:21:43;9.38;;;6.95;;
40753;SDS011;26460;42.732;-84.532;2024-02-26T08:24:09;11.10;;;7.20;;
40753;SDS011;26460;42.732;-84.532;2024-02-26T08:26:36;9.93;;;6.60;;
40753;SDS011;26460;42.732;-84.532;2024-02-26T08:29:02;10.13;;;7.15;;
40753;SDS011;26460;42.732;-84.532;2024-02-26T08:31:29;11.55;;;6.88;;
40753;SDS011;26460;42.732;-84.532;2024-02-26T08:33:56;11.15;;;6.43;;
40753;SDS011;26460;42.732;-84.532;2024-02-26T08:36:24;9.60;;;6.68;;
40753;SDS011;26460;42.732;-84.532;2024-02-26T08:38:50;9.30;;;6.53;;
40753;SDS011;26460;42.732;-84.532;2024-02-26T08:41:17;11.98;;;6.90;;
40753;SDS011;26460;42.732;-84.532;2024-02-26T08:43:43;12.82;;;7.15;;
40753;SDS011;26460;42.732;-84.532;2024-02-26T08:46:10;20.35;;;10.65;;
40753;SDS011;26460;42.732;-84.532;2024-02-26T08:48:39;27.08;;;13.40;;
40753;SDS011;26460;42.732;-84.532;2024-02-26T08:51:06;25.77;;;13.68;;
40753;SDS011;26460;42.732;-84.532;2024-02-26T08:53:33;27.45;;;14.07;;
40753;SDS011;26460;42.732;-84.532;2024-02-26T08:56:00;33.15;;;13.93;;
40753;SDS011;26460;42.732;-84.532;2024-02-26T08:58:27;27.67;;;13.48;;
40753;SDS011;26460;42.732;-84.532;2024-02-26T09:00:54;29.63;;;14.38;;
40753;SDS011;26460;42.732;-84.532;2024-02-26T09:03:21;28.33;;;13.60;;
40753;SDS011;26460;42.732;-84.532;2024-02-26T09:05:48;24.90;;;12.35;;
40753;SDS011;26460;42.732;-84.532;2024-02-26T09:08:15;23.58;;;11.25;;
40753;SDS011;26460;42.732;-84.532;2024-02-26T09:10:41;21.25;;;10.90;;
40753;SDS011;26460;42.732;-84.532;2024-02-26T09:13:08;19.20;;;9.65;;
40753;SDS011;26460;42.732;-84.532;2024-02-26T09:15:35;17.70;;;8.73;;
40753;SDS011;26460;42.732;-84.532;2024-02-26T09:18:01;15.93;;;8.45;;
40753;SDS011;26460;42.732;-84.532;2024-02-26T09:20:28;16.02;;;8.15;;
40753;SDS011;26460;42.732;-84.532;2024-02-26T09:22:55;12.85;;;6.55;;
40753;SDS011;26460;42.732;-84.532;2024-02-26T09:25:21;11.48;;;6.40;;
40753;SDS011;26460;42.732;-84.532;2024-02-26T09:27:48;11.45;;;6.57;;
40753;SDS011;26460;42.732;-84.532;2024-02-26T09:30:15;13.40;;;7.28;;
40753;SDS011;26460;42.732;-84.532;2024-02-26T09:32:45;20.08;;;9.43;;
40753;SDS011;26460;42.732;-84.532;2024-02-26T09:35:13;20.85;;;11.07;;
40753;SDS011;26460;42.732;-84.532;2024-02-26T09:37:39;23.15;;;11.85;;
40753;SDS011;26460;42.732;-84.532;2024-02-26T09:40:06;24.58;;;12.50;;
40753;SDS011;26460;42.732;-84.532;2024-02-26T09:42:33;28.10;;;11.70;;
40753;SDS011;26460;42.732;-84.532;2024-02-26T09:45:01;23.15;;;11.43;;
40753;SDS011;26460;42.732;-84.532;2024-02-26T09:47:34;20.80;;;10.27;;
40753;SDS011;26460;42.732;-84.532;2024-02-26T09:52:30;18.67;;;8.05;;
40753;SDS011;26460;42.732;-84.532;2024-02-26T09:55:00;18.67;;;7.82;;
40753;SDS011;26460;42.732;-84.532;2024-02-26T09:57:28;13.95;;;6.40;;
40753;SDS011;26460;42.732;-84.532;2024-02-26T09:59:55;9.88;;;5.63;;
40753;SDS011;26460;42.732;-84.532;2024-02-26T10:02:29;12.70;;;5.78;;
40753;SDS011;26460;42.732;-84.532;2024-02-26T10:04:57;7.38;;;5.10;;
40753;SDS011;26460;42.732;-84.532;2024-02-26T10:07:30;9.18;;;4.65;;
40753;SDS011;26460;42.732;-84.532;2024-02-26T10:09:58;6.75;;;3.90;;
40753;SDS011;26460;42.732;-84.532;2024-02-26T10:12:24;10.13;;;4.40;;
40753;SDS011;26460;42.732;-84.532;2024-02-26T10:14:53;8.57;;;4.10;;
40753;SDS011;26460;42.732;-84.532;2024-02-26T10:17:20;6.38;;;3.58;;
40753;SDS011;26460;42.732;-84.532;2024-02-26T10:19:48;3.70;;;3.30;;
40753;SDS011;26460;42.732;-84.532;2024-02-26T10:22:16;4.70;;;3.35;;
40753;SDS011;26460;42.732;-84.532;2024-02-26T10:24:43;6.03;;;3.97;;
40753;SDS011;26460;42.732;-84.532;2024-02-26T10:27:12;3.60;;;3.05;;
40753;SDS011;26460;42.732;-84.532;2024-02-26T10:29:40;3.97;;;2.95;;
40753;SDS011;26460;42.732;-84.532;2024-02-26T10:32:09;4.10;;;3.30;;
40753;SDS011;26460;42.732;-84.532;2024-02-26T10:34:36;6.38;;;3.78;;
40753;SDS011;26460;42.732;-84.532;2024-02-26T10:37:04;3.97;;;2.97;;
40753;SDS011;26460;42.732;-84.532;2024-02-26T10:39:31;3.00;;;2.70;;
40753;SDS011;26460;42.732;-84.532;2024-02-26T10:41:57;4.35;;;3.00;;
40753;SDS011;26460;42.732;-84.532;2024-02-26T10:44:30;4.28;;;3.10;;
40753;SDS011;26460;42.732;-84.532;2024-02-26T10:46:57;4.63;;;3.30;;
40753;SDS011;26460;42.732;-84.532;2024-02-26T10:49:23;5.07;;;3.10;;
40753;SDS011;26460;42.732;-84.532;2024-02-26T10:51:53;6.25;;;3.60;;
40753;SDS011;26460;42.732;-84.532;2024-02-26T10:54:27;7.50;;;4.03;;
40753;SDS011;26460;42.732;-84.532;2024-02-26T10:56:56;6.20;;;3.97;;
40753;SDS011;26460;42.732;-84.532;2024-02-26T10:59:25;5.53;;;3.92;;
40753;SDS011;26460;42.732;-84.532;2024-02-26T11:01:52;4.90;;;3.60;;
40753;SDS011;26460;42.732;-84.532;2024-02-26T11:04:21;6.05;;;4.03;;
40753;SDS011;26460;42.732;-84.532;2024-02-26T11:06:48;8.05;;;4.10;;
40753;SDS011;26460;42.732;-84.532;2024-02-26T11:09:16;4.68;;;3.40;;
40753;SDS011;26460;42.732;-84.532;2024-02-26T11:11:43;6.22;;;3.80;;
40753;SDS011;26460;42.732;-84.532;2024-02-26T11:14:10;5.65;;;3.42;;
40753;SDS011;26460;42.732;-84.532;2024-02-26T11:16:38;5.33;;;3.43;;
40753;SDS011;26460;42.732;-84.532;2024-02-26T11:19:08;4.75;;;3.30;;
40753;SDS011;26460;42.732;-84.532;2024-02-26T11:21:37;5.82;;;3.33;;
40753;SDS011;26460;42.732;-84.532;2024-02-26T11:24:08;3.72;;;3.03;;
40753;SDS011;26460;42.732;-84.532;2024-02-26T11:26:41;3.58;;;2.80;;
40753;SDS011;26460;42.732;-84.532;2024-02-26T11:29:11;3.47;;;3.17;;
40753;SDS011;26460;42.732;-84.532;2024-02-26T11:31:42;4.45;;;3.33;;
40753;SDS011;26460;42.732;-84.532;2024-02-26T11:34:09;3.67;;;2.95;;
40753;SDS011;26460;42.732;-84.532;2024-02-26T11:36:37;3.33;;;2.70;;
40753;SDS011;26460;42.732;-84.532;2024-02-26T11:39:04;3.53;;;2.92;;
40753;SDS011;26460;42.732;-84.532;2024-02-26T11:41:32;3.53;;;2.75;;
40753;SDS011;26460;42.732;-84.532;2024-02-26T11:43:59;3.53;;;3.10;;
40753;SDS011;26460;42.732;-84.532;2024-02-26T11:46:31;3.60;;;2.72;;
40753;SDS011;26460;42.732;-84.532;2024-02-26T11:51:57;4.28;;;2.72;;
40753;SDS011;26460;42.732;-84.532;2024-02-26T11:57:21;4.50;;;2.80;;
40753;SDS011;26460;42.732;-84.532;2024-02-26T12:00:12;3.47;;;2.63;;
40753;SDS011;26460;42.732;-84.532;2024-02-26T12:02:55;3.78;;;2.40;;
40753;SDS011;26460;42.732;-84.532;2024-02-26T12:05:27;3.85;;;2.55;;
40753;SDS011;26460;42.732;-84.532;2024-02-26T12:10:39;5.47;;;2.55;;
40753;SDS011;26460;42.732;-84.532;2024-02-26T12:13:12;3.22;;;2.50;;
40753;SDS011;26460;42.732;-84.532;2024-02-26T12:15:56;2.60;;;2.20;;
40753;SDS011;26460;42.732;-84.532;2024-02-26T12:18:24;3.72;;;2.65;;
40753;SDS011;26460;42.732;-84.532;2024-02-26T12:21:00;2.85;;;2.53;;
40753;SDS011;26460;42.732;-84.532;2024-02-26T12:23:28;3.97;;;2.55;;
40753;SDS011;26460;42.732;-84.532;2024-02-26T12:25:58;2.35;;;2.10;;
40753;SDS011;26460;42.732;-84.532;2024-02-26T12:28:29;3.22;;;2.60;;
40753;SDS011;26460;42.732;-84.532;2024-02-26T12:30:56;2.20;;;2.00;;
40753;SDS011;26460;42.732;-84.532;2024-02-26T12:33:25;2.90;;;2.38;;
40753;SDS011;26460;42.732;-84.532;2024-02-26T12:35:53;3.15;;;2.50;;
40753;SDS011;26460;42.732;-84.532;2024-02-26T12:38:19;3.50;;;1.90;;
40753;SDS011;26460;42.732;-84.532;2024-02-26T12:40:46;3.38;;;2.50;;
40753;SDS011;26460;42.732;-84.532;2024-02-26T12:43:16;2.55;;;2.10;;
40753;SDS011;26460;42.732;-84.532;2024-02-26T12:45:43;2.53;;;2.30;;
40753;SDS011;26460;42.732;-84.532;2024-02-26T12:48:13;2.40;;;2.20;;
40753;SDS011;26460;42.732;-84.532;2024-02-26T12:50:40;3.42;;;2.53;;
40753;SDS011;26460;42.732;-84.532;2024-02-26T12:53:10;4.85;;;2.40;;
40753;SDS011;26460;42.732;-84.532;2024-02-26T12:55:37;4.95;;;2.28;;
40753;SDS011;26460;42.732;-84.532;2024-02-26T12:58:05;6.05;;;2.20;;
40753;SDS011;26460;42.732;-84.532;2024-02-26T13:00:32;5.75;;;2.33;;
40753;SDS011;26460;42.732;-84.532;2024-02-26T13:02:59;5.25;;;2.70;;
40753;SDS011;26460;42.732;-84.532;2024-02-26T13:05:26;3.30;;;2.00;;
40753;SDS011;26460;42.732;-84.532;2024-02-26T13:07:53;3.13;;;1.90;;
40753;SDS011;26460;42.732;-84.532;2024-02-26T13:10:20;4.97;;;2.17;;
40753;SDS011;26460;42.732;-84.532;2024-02-26T13:12:47;2.28;;;2.08;;
40753;SDS011;26460;42.732;-84.532;2024-02-26T13:15:18;2.95;;;1.90;;
40753;SDS011;26460;42.732;-84.532;2024-02-26T13:17:46;3.08;;;1.77;;
40753;SDS011;26460;42.732;-84.532;2024-02-26T13:20:25;5.47;;;2.00;;
40753;SDS011;26460;42.732;-84.532;2024-02-26T13:23:05;3.05;;;2.08;;
40753;SDS011;26460;42.732;-84.532;2024-02-26T13:25:35;2.70;;;2.03;;
40753;SDS011;26460;42.732;-84.532;2024-02-26T13:28:08;2.22;;;1.98;;
40753;SDS011;26460;42.732;-84.532;2024-02-26T13:30:36;4.38;;;1.83;;
40753;SDS011;26460;42.732;-84.532;2024-02-26T13:33:12;3.67;;;2.20;;
40753;SDS011;26460;42.732;-84.532;2024-02-26T13:35:39;3.15;;;1.73;;
40753;SDS011;26460;42.732;-84.532;2024-02-26T13:38:06;1.48;;;1.38;;
40753;SDS011;26460;42.732;-84.532;2024-02-26T13:40:32;4.90;;;1.85;;
40753;SDS011;26460;42.732;-84.532;2024-02-26T13:43:00;2.30;;;1.80;;
40753;SDS011;26460;42.732;-84.532;2024-02-26T13:45:27;3.55;;;1.80;;
40753;SDS011;26460;42.732;-84.532;2024-02-26T13:47:53;2.38;;;1.80;;
40753;SDS011;26460;42.732;-84.532;2024-02-26T13:50:20;2.92;;;1.98;;
40753;SDS011;26460;42.732;-84.532;2024-02-26T13:52:48;2.15;;;1.80;;
40753;SDS011;26460;42.732;-84.532;2024-02-26T13:55:19;2.28;;;1.80;;
40753;SDS011;26460;42.732;-84.532;2024-02-26T13:57:47;3.40;;;1.75;;
40753;SDS011;26460;42.732;-84.532;2024-02-26T14:00:14;1.90;;;1.65;;
40753;SDS011;26460;42.732;-84.532;2024-02-26T14:02:41;2.63;;;1.92;;
40753;SDS011;26460;42.732;-84.532;2024-02-26T14:05:08;1.50;;;1.40;;
40753;SDS011;26460;42.732;-84.532;2024-02-26T14:07:35;4.45;;;1.60;;
40753;SDS011;26460;42.732;-84.532;2024-02-26T14:10:01;1.20;;;1.10;;
40753;SDS011;26460;42.732;-84.532;2024-02-26T14:12:28;2.85;;;1.65;;
40753;SDS011;26460;42.732;-84.532;2024-02-26T14:14:55;2.25;;;1.55;;
40753;SDS011;26460;42.732;-84.532;2024-02-26T14:17:21;2.13;;;1.42;;
40753;SDS011;26460;42.732;-84.532;2024-02-26T14:19:48;2.10;;;1.63;;
40753;SDS011;26460;42.732;-84.532;2024-02-26T14:22:15;3.47;;;1.70;;
40753;SDS011;26460;42.732;-84.532;2024-02-26T14:24:42;2.38;;;1.58;;
40753;SDS011;26460;42.732;-84.532;2024-02-26T14:27:08;1.50;;;1.40;;
40753;SDS011;26460;42.732;-84.532;2024-02-26T14:29:40;1.83;;;1.63;;